createdAt,value
2023-05-06T00:01:20.802Z,98526.65
2023-05-06T00:03:48.654Z,98525.02
2023-05-06T00:06:16.436Z,98521.66
2023-05-06T00:08:44.062Z,98522.84
2023-05-06T00:11:12.047Z,98524.55
2023-05-06T00:13:39.701Z,98524.14
2023-05-06T00:16:07.458Z,98518.01
2023-05-06T00:18:35.171Z,98515.71
2023-05-06T00:21:02.793Z,98515.66
2023-05-06T00:23:30.462Z,98519.12
2023-05-06T00:25:58.089Z,98516.63
2023-05-06T00:28:25.738Z,98516.61
2023-05-06T00:30:53.481Z,98514.66
2023-05-06T00:33:21.106Z,98514.11
2023-05-06T00:35:48.910Z,98513.03
2023-05-06T00:38:17.062Z,98515.97
2023-05-06T00:40:44.664Z,98514.55
2023-05-06T00:43:12.286Z,98514.14
2023-05-06T00:45:40.049Z,98510.47
2023-05-06T00:48:07.802Z,98512.18
2023-05-06T00:50:35.802Z,98511.44
2023-05-06T00:53:04.178Z,98516.80
2023-05-06T00:55:32.064Z,98511.87
2023-05-06T00:57:59.647Z,98509.20
2023-05-06T01:00:27.298Z,98506.71
2023-05-06T01:02:54.993Z,98509.45
2023-05-06T01:05:23.200Z,98510.43
2023-05-06T01:08:34.876Z,98512.84
2023-05-06T01:11:04.798Z,98513.81
2023-05-06T01:13:43.212Z,98514.80
2023-05-06T01:16:10.800Z,98509.33
2023-05-06T01:18:38.444Z,98512.26
2023-05-06T01:21:06.251Z,98505.58
2023-05-06T01:23:58.036Z,98509.54
2023-05-06T01:26:26.512Z,98504.94
2023-05-06T01:28:54.409Z,98501.25
2023-05-06T01:31:36.622Z,98501.88
2023-05-06T01:34:15.540Z,98500.12
2023-05-06T01:37:25.358Z,98498.69
2023-05-06T01:39:54.349Z,98500.39
2023-05-06T01:42:21.984Z,98493.23
2023-05-06T01:44:49.594Z,98489.73
2023-05-06T01:47:17.265Z,98487.94
2023-05-06T01:49:44.883Z,98485.48
2023-05-06T01:52:12.500Z,98483.19
2023-05-06T01:54:40.349Z,98486.11
2023-05-06T01:57:08.026Z,98481.90
2023-05-06T01:59:35.777Z,98482.41
2023-05-06T02:02:03.476Z,98481.51
2023-05-06T02:04:32.148Z,98480.27
2023-05-06T02:06:59.753Z,98476.06
2023-05-06T02:09:27.330Z,98477.10
2023-05-06T02:11:54.929Z,98477.26
2023-05-06T02:14:22.515Z,98475.69
2023-05-06T02:16:50.747Z,98474.62
2023-05-06T02:19:18.470Z,98464.02
2023-05-06T02:21:46.110Z,98464.98
2023-05-06T02:24:13.717Z,98461.80
2023-05-06T02:26:41.291Z,98460.16
2023-05-06T02:29:08.885Z,98457.61
2023-05-06T02:31:36.627Z,98457.13
2023-05-06T02:34:04.756Z,98459.91
2023-05-06T02:36:32.472Z,98460.96
2023-05-06T02:39:00.161Z,98464.77
2023-05-06T02:41:27.800Z,98466.33
2023-05-06T02:43:55.492Z,98469.98
2023-05-06T02:46:23.184Z,98466.83
2023-05-06T02:48:50.965Z,98469.78
2023-05-06T02:51:18.626Z,98470.48
2023-05-06T02:53:46.220Z,98468.73
2023-05-06T02:56:13.835Z,98466.10
2023-05-06T02:58:41.408Z,98461.91
2023-05-06T03:01:09.331Z,98458.92
2023-05-06T03:03:37.019Z,98458.41
2023-05-06T03:06:04.918Z,98463.45
2023-05-06T03:08:32.758Z,98463.27
2023-05-06T03:11:00.522Z,98466.39
2023-05-06T03:13:28.200Z,98464.63
2023-05-06T03:15:56.520Z,98465.84
2023-05-06T03:18:24.137Z,98466.33
2023-05-06T03:20:51.986Z,98465.45
2023-05-06T03:23:19.599Z,98462.82
2023-05-06T03:25:47.240Z,98463.52
2023-05-06T03:28:14.901Z,98460.36
2023-05-06T03:30:42.506Z,98462.11
2023-05-06T03:33:10.211Z,98461.67
2023-05-06T03:35:37.878Z,98460.92
2023-05-06T03:38:05.964Z,98458.05
2023-05-06T03:40:33.643Z,98454.97
2023-05-06T03:43:01.285Z,98452.73
2023-05-06T03:45:29.026Z,98456.63
2023-05-06T03:47:58.446Z,98453.66
2023-05-06T03:50:26.923Z,98456.47
2023-05-06T03:52:54.559Z,98463.65
2023-05-06T03:55:22.180Z,98462.29
2023-05-06T03:57:49.792Z,98463.20
2023-05-06T04:00:17.774Z,98468.98
2023-05-06T04:02:45.662Z,98467.45
2023-05-06T04:05:13.285Z,98468.01
2023-05-06T04:07:40.876Z,98466.30
2023-05-06T04:10:09.137Z,98466.69
2023-05-06T04:12:36.764Z,98462.88
2023-05-06T04:15:05.090Z,98464.12
2023-05-06T04:17:32.874Z,98462.09
2023-05-06T04:20:01.289Z,98459.31
2023-05-06T04:22:28.924Z,98458.30
2023-05-06T04:24:56.581Z,98457.46
2023-05-06T04:27:26.578Z,98456.30
2023-05-06T04:29:54.268Z,98453.19
2023-05-06T04:32:25.171Z,98457.64
2023-05-06T04:34:53.351Z,98454.95
2023-05-06T04:37:21.308Z,98452.61
2023-05-06T04:39:48.905Z,98450.59
2023-05-06T04:42:16.843Z,98447.67
2023-05-06T04:44:44.505Z,98448.40
2023-05-06T04:47:12.181Z,98441.80
2023-05-06T04:49:39.936Z,98437.66
2023-05-06T04:52:07.565Z,98436.15
2023-05-06T04:54:35.204Z,98435.32
2023-05-06T04:57:03.473Z,98431.36
2023-05-06T04:59:31.164Z,98427.95
2023-05-06T05:01:58.775Z,98430.45
2023-05-06T05:04:27.130Z,98429.46
2023-05-06T05:06:54.797Z,98426.02
2023-05-06T05:09:22.376Z,98423.10
2023-05-06T05:11:50.024Z,98424.02
2023-05-06T05:14:17.651Z,98422.30
2023-05-06T05:16:45.376Z,98428.14
2023-05-06T05:19:13.114Z,98422.59
2023-05-06T05:21:40.978Z,98424.92
2023-05-06T05:24:08.624Z,98425.14
2023-05-06T05:26:36.252Z,98421.67
2023-05-06T05:29:04.184Z,98420.69
2023-05-06T05:31:31.878Z,98420.91
2023-05-06T05:33:59.542Z,98416.60
2023-05-06T05:36:27.700Z,98411.90
2023-05-06T05:38:55.525Z,98411.26
2023-05-06T05:41:23.255Z,98408.51
2023-05-06T05:43:50.837Z,98397.54
2023-05-06T05:46:18.485Z,98397.58
2023-05-06T05:48:46.312Z,98396.23
2023-05-06T05:51:14.358Z,98397.47
2023-05-06T05:53:42.455Z,98396.44
2023-05-06T05:56:10.295Z,98399.96
2023-05-06T05:58:38.063Z,98390.18
2023-05-06T06:01:06.230Z,98384.07
2023-05-06T06:03:34.244Z,98382.34
2023-05-06T06:06:02.086Z,98374.50
2023-05-06T06:08:30.146Z,98373.45
2023-05-06T06:10:58.004Z,98376.96
2023-05-06T06:13:28.393Z,98376.63
2023-05-06T06:15:56.891Z,98384.00
2023-05-06T06:18:24.775Z,98384.71
2023-05-06T06:20:53.252Z,98379.48
2023-05-06T06:23:21.844Z,98384.56
2023-05-06T06:25:49.443Z,98383.20
2023-05-06T06:28:17.196Z,98382.02
2023-05-06T06:30:44.836Z,98388.69
2023-05-06T06:33:12.473Z,98385.21
2023-05-06T06:35:40.339Z,98385.75
2023-05-06T06:38:08.010Z,98373.34
2023-05-06T06:40:36.072Z,98378.62
2023-05-06T06:43:03.754Z,98375.67
2023-05-06T06:45:31.407Z,98379.02
2023-05-06T06:47:59.202Z,98374.81
2023-05-06T06:50:27.041Z,98374.14
2023-05-06T06:52:54.817Z,98375.55
2023-05-06T06:55:22.681Z,98373.27
2023-05-06T06:57:50.385Z,98371.17
2023-05-06T07:00:18.143Z,98363.98
2023-05-06T07:02:48.224Z,98355.05
2023-05-06T07:05:16.021Z,98352.60
2023-05-06T07:07:43.603Z,98355.21
2023-05-06T07:10:11.346Z,98353.27
2023-05-06T07:12:39.096Z,98342.20
2023-05-06T07:15:07.415Z,98340.12
2023-05-06T07:17:35.339Z,98338.87
2023-05-06T07:20:03.258Z,98333.92
2023-05-06T07:22:30.876Z,98332.66
2023-05-06T07:24:58.517Z,98330.53
2023-05-06T07:27:27.407Z,98331.55
2023-05-06T07:29:55.079Z,98333.45
2023-05-06T07:32:22.754Z,98326.20
2023-05-06T07:34:50.460Z,98327.02
2023-05-06T07:37:18.181Z,98329.97
2023-05-06T07:39:45.820Z,98325.56
2023-05-06T07:42:13.439Z,98325.20
2023-05-06T07:44:41.075Z,98323.79
2023-05-06T07:47:08.750Z,98321.83
2023-05-06T07:49:36.687Z,98326.05
2023-05-06T07:52:04.753Z,98327.79
2023-05-06T07:54:32.421Z,98331.27
2023-05-06T07:57:02.869Z,98331.27
2023-05-06T07:59:30.466Z,98332.31
2023-05-06T08:01:58.164Z,98325.98
2023-05-06T08:04:26.217Z,98326.17
2023-05-06T08:06:53.864Z,98324.24
2023-05-06T08:09:23.205Z,98322.30
2023-05-06T08:11:51.262Z,98318.77
2023-05-06T08:14:18.871Z,98315.60
2023-05-06T08:16:46.607Z,98317.15
2023-05-06T08:19:14.361Z,98315.54
2023-05-06T08:21:41.943Z,98310.23
2023-05-06T08:24:11.023Z,98307.40
2023-05-06T08:26:38.646Z,98310.92
2023-05-06T08:29:07.244Z,98313.89
2023-05-06T08:31:35.124Z,98311.73
2023-05-06T08:34:02.758Z,98310.81
2023-05-06T08:36:30.868Z,98310.26
2023-05-06T08:38:58.475Z,98306.73
2023-05-06T08:41:26.470Z,98305.80
2023-05-06T08:43:54.489Z,98305.73
2023-05-06T08:46:22.882Z,98308.18
2023-05-06T08:48:50.604Z,98306.11
2023-05-06T08:51:18.186Z,98308.06
2023-05-06T08:53:48.274Z,98300.21
2023-05-06T08:56:16.772Z,98291.45
2023-05-06T08:58:45.946Z,98296.64
2023-05-06T09:01:14.159Z,98293.02
2023-05-06T09:03:41.928Z,98302.77
2023-05-06T09:06:10.178Z,98315.84
2023-05-06T09:08:37.790Z,98318.52
2023-05-06T09:11:25.303Z,98311.89
2023-05-06T09:14:07.233Z,98298.23
2023-05-06T09:16:35.061Z,98293.52
2023-05-06T09:19:02.728Z,98288.59
2023-05-06T09:21:40.973Z,98291.41
2023-05-06T09:24:09.258Z,98286.99
2023-05-06T09:26:37.922Z,98282.22
2023-05-06T09:29:05.991Z,98290.27
2023-05-06T09:31:33.814Z,98298.70
2023-05-06T09:34:01.454Z,98300.25
2023-05-06T09:36:29.103Z,98303.61
2023-05-06T09:38:57.141Z,98309.77
2023-05-06T09:41:28.231Z,98316.64
2023-05-06T09:43:56.328Z,98319.48
2023-05-06T09:46:24.662Z,98328.64
2023-05-06T09:48:53.218Z,98333.58
2023-05-06T09:51:20.917Z,98334.67
2023-05-06T09:53:48.826Z,98331.02
2023-05-06T09:56:16.475Z,98334.18
2023-05-06T09:58:44.125Z,98328.40
2023-05-06T10:01:17.074Z,98330.66
2023-05-06T10:03:47.389Z,98331.16
2023-05-06T10:06:15.882Z,98333.26
2023-05-06T10:08:46.135Z,98332.39
2023-05-06T10:11:14.665Z,98331.89
2023-05-06T10:13:42.704Z,98330.67
2023-05-06T10:16:10.375Z,98327.35
2023-05-06T10:18:38.917Z,98323.34
2023-05-06T10:21:10.388Z,98318.27
2023-05-06T10:23:44.482Z,98320.91
2023-05-06T10:26:12.284Z,98323.03
2023-05-06T10:28:41.354Z,98313.73
2023-05-06T10:31:13.063Z,98310.57
2023-05-06T10:33:42.441Z,98303.36
2023-05-06T10:36:28.617Z,98292.30
2023-05-06T10:38:56.924Z,98287.92
2023-05-06T10:41:26.197Z,98281.61
2023-05-06T10:43:57.445Z,98281.08
2023-05-06T10:46:26.909Z,98277.58
2023-05-06T10:49:08.478Z,98274.25
2023-05-06T10:51:39.427Z,98277.77
2023-05-06T10:54:19.003Z,98281.45
2023-05-06T10:56:50.868Z,98281.10
2023-05-06T10:59:23.863Z,98279.02
2023-05-06T11:02:04.605Z,98269.72
2023-05-06T11:04:32.615Z,98263.38
2023-05-06T11:07:08.544Z,98258.11
2023-05-06T11:10:00.542Z,98256.70
2023-05-06T11:12:49.251Z,98254.23
2023-05-06T11:15:36.365Z,98255.27
2023-05-06T11:18:25.719Z,98258.59
2023-05-06T11:21:02.868Z,98261.40
2023-05-06T11:23:43.505Z,98267.92
2023-05-06T11:26:11.469Z,98273.20
2023-05-06T11:28:46.398Z,98275.67
2023-05-06T11:31:14.611Z,98277.27
2023-05-06T11:33:46.501Z,98277.45
2023-05-06T11:36:17.887Z,98275.17
2023-05-06T11:38:46.579Z,98279.74
2023-05-06T11:41:15.003Z,98284.14
2023-05-06T11:43:46.473Z,98284.16
2023-05-06T11:46:14.068Z,98275.90
2023-05-06T11:48:43.442Z,98280.64
2023-05-06T11:51:11.074Z,98282.75
2023-05-06T11:53:38.701Z,98281.52
2023-05-06T11:56:06.768Z,98283.10
2023-05-06T11:58:34.533Z,98285.89
2023-05-06T12:01:03.746Z,98276.44
2023-05-06T12:03:32.306Z,98275.90
2023-05-06T12:06:00.182Z,98275.20
2023-05-06T12:08:32.969Z,98275.73
2023-05-06T12:11:05.429Z,98274.33
2023-05-06T12:13:34.941Z,98278.01
2023-05-06T12:16:02.941Z,98278.88
2023-05-06T12:18:30.662Z,98284.84
2023-05-06T12:20:59.127Z,98289.42
2023-05-06T12:23:26.820Z,98288.73
2023-05-06T12:26:02.557Z,98294.52
2023-05-06T12:28:31.083Z,98294.52
2023-05-06T12:30:58.767Z,98305.57
2023-05-06T12:33:26.395Z,98310.65
2023-05-06T12:35:57.086Z,98311.68
2023-05-06T12:38:25.182Z,98311.19
2023-05-06T12:40:53.712Z,98310.48
2023-05-06T12:43:29.005Z,98314.33
2023-05-06T12:46:09.263Z,98313.45
2023-05-06T12:48:37.027Z,98312.23
2023-05-06T12:51:19.234Z,98308.55
2023-05-06T12:53:46.921Z,98306.25
2023-05-06T12:56:14.566Z,98305.36
2023-05-06T12:58:42.198Z,98302.39
2023-05-06T13:01:09.882Z,98304.67
2023-05-06T13:03:38.949Z,98305.20
2023-05-06T13:06:06.777Z,98306.63
2023-05-06T13:08:34.497Z,98310.32
2023-05-06T13:11:02.699Z,98311.01
2023-05-06T13:13:31.019Z,98312.59
2023-05-06T13:15:58.603Z,98316.27
2023-05-06T13:18:26.270Z,98315.92
2023-05-06T13:20:53.846Z,98308.35
2023-05-06T13:23:21.700Z,98299.05
2023-05-06T13:26:03.488Z,98297.79
2023-05-06T13:28:33.685Z,98295.16
2023-05-06T13:31:01.397Z,98289.00
2023-05-06T13:33:29.174Z,98295.30
2023-05-06T13:35:57.009Z,98297.91
2023-05-06T13:38:24.772Z,98295.08
2023-05-06T13:40:53.159Z,98296.09
2023-05-06T13:43:21.332Z,98293.76
2023-05-06T13:45:49.327Z,98298.29
2023-05-06T13:48:17.965Z,98298.79
2023-05-06T13:50:48.743Z,98301.41
2023-05-06T13:53:16.564Z,98301.04
2023-05-06T13:55:44.220Z,98299.98
2023-05-06T13:58:11.848Z,98301.17
2023-05-06T14:00:39.764Z,98300.61
2023-05-06T14:03:07.837Z,98298.84
2023-05-06T14:05:35.529Z,98298.84
2023-05-06T14:08:03.289Z,98300.27
2023-05-06T14:10:30.954Z,98299.77
2023-05-06T14:12:58.595Z,98302.61
2023-05-06T14:15:26.249Z,98304.89
2023-05-06T14:17:54.284Z,98304.73
2023-05-06T14:20:21.978Z,98301.59
2023-05-06T14:22:49.770Z,98300.02
2023-05-06T14:25:17.411Z,98300.92
2023-05-06T14:27:45.678Z,98299.22
2023-05-06T14:30:13.855Z,98302.94
2023-05-06T14:32:41.539Z,98298.20
2023-05-06T14:35:10.476Z,98289.20
2023-05-06T14:37:38.290Z,98285.11
2023-05-06T14:40:06.771Z,98290.02
2023-05-06T14:42:35.853Z,98290.35
2023-05-06T14:45:04.059Z,98284.89
2023-05-06T14:47:31.739Z,98291.73
2023-05-06T14:49:59.570Z,98292.91
2023-05-06T14:52:27.256Z,98295.19
2023-05-06T14:54:54.842Z,98294.33
2023-05-06T14:57:22.660Z,98295.41
2023-05-06T14:59:51.053Z,98291.20
2023-05-06T15:02:18.910Z,98292.29
2023-05-06T15:04:46.657Z,98286.84
2023-05-06T15:07:14.362Z,98284.58
2023-05-06T15:09:44.130Z,98291.11
2023-05-06T15:12:11.768Z,98290.77
2023-05-06T15:14:39.754Z,98296.20
2023-05-06T15:17:07.858Z,98298.30
2023-05-06T15:19:35.916Z,98300.94
2023-05-06T15:22:03.585Z,98299.71
2023-05-06T15:24:31.248Z,98311.29
2023-05-06T15:26:58.854Z,98309.00
2023-05-06T15:29:26.727Z,98310.73
2023-05-06T15:31:54.535Z,98307.52
2023-05-06T15:34:22.177Z,98303.11
2023-05-06T15:36:51.890Z,98308.03
2023-05-06T15:39:19.603Z,98308.92
2023-05-06T15:41:47.758Z,98309.65
2023-05-06T15:44:16.379Z,98319.31
2023-05-06T15:46:44.221Z,98315.64
2023-05-06T15:49:46.629Z,98315.31
2023-05-06T15:52:01.308Z,98317.25
2023-05-06T15:54:29.399Z,98316.91
2023-05-06T15:56:58.356Z,98317.27
2023-05-06T15:59:27.007Z,98321.52
2023-05-06T16:04:25.430Z,98318.04
2023-05-06T16:06:53.346Z,98316.98
2023-05-06T16:09:21.008Z,98319.24
2023-05-06T16:11:51.230Z,98325.39
2023-05-06T16:14:18.862Z,98329.79
2023-05-06T16:16:46.477Z,98337.36
2023-05-06T16:19:14.263Z,98335.81
2023-05-06T16:21:41.868Z,98333.18
2023-05-06T16:24:09.472Z,98326.67
2023-05-06T16:26:37.098Z,98326.29
2023-05-06T16:29:04.864Z,98326.46
2023-05-06T16:31:33.546Z,98327.00
2023-05-06T16:34:01.331Z,98326.10
2023-05-06T16:36:29.067Z,98326.30
2023-05-06T16:38:56.759Z,98331.56
2023-05-06T16:41:24.394Z,98334.04
2023-05-06T16:43:51.995Z,98334.23
2023-05-06T16:46:20.868Z,98335.30
2023-05-06T16:48:51.604Z,98337.42
2023-05-06T16:51:19.460Z,98339.02
2023-05-06T16:53:47.121Z,98340.24
2023-05-06T16:56:14.709Z,98341.13
2023-05-06T16:58:42.932Z,98341.84
2023-05-06T17:01:11.275Z,98341.15
2023-05-06T17:03:40.320Z,98341.33
2023-05-06T17:06:08.396Z,98339.92
2023-05-06T17:08:37.275Z,98338.52
2023-05-06T17:11:06.025Z,98337.83
2023-05-06T17:13:34.466Z,98341.89
2023-05-06T17:16:02.117Z,98339.95
2023-05-06T17:18:29.792Z,98338.02
2023-05-06T17:20:57.748Z,98336.77
2023-05-06T17:23:25.453Z,98333.59
2023-05-06T17:25:55.018Z,98331.98
2023-05-06T17:28:22.686Z,98332.50
2023-05-06T17:30:50.375Z,98332.67
2023-05-06T17:33:18.040Z,98326.53
2023-05-06T17:35:45.979Z,98329.34
2023-05-06T17:38:13.672Z,98331.46
2023-05-06T17:40:41.329Z,98337.28
2023-05-06T17:43:08.956Z,98343.10
2023-05-06T17:45:36.582Z,98340.45
2023-05-06T17:48:04.637Z,98349.59
2023-05-06T17:50:32.531Z,98349.25
2023-05-06T17:53:00.225Z,98351.88
2023-05-06T17:55:27.999Z,98355.58
2023-05-06T17:57:55.664Z,98359.95
2023-05-06T18:00:23.521Z,98359.42
2023-05-06T18:02:51.239Z,98363.63
2023-05-06T18:05:19.047Z,98362.04
2023-05-06T18:07:46.654Z,98365.54
2023-05-06T18:10:14.294Z,98370.60
2023-05-06T18:12:42.117Z,98369.20
2023-05-06T18:15:10.696Z,98371.30
2023-05-06T18:17:38.733Z,98375.48
2023-05-06T18:20:08.103Z,98370.59
2023-05-06T18:22:35.868Z,98372.17
2023-05-06T18:25:04.381Z,98379.50
2023-05-06T18:27:32.535Z,98383.19
2023-05-06T18:30:00.472Z,98391.26
2023-05-06T18:32:28.303Z,98391.08
2023-05-06T18:34:56.439Z,98391.23
2023-05-06T18:37:24.084Z,98393.50
2023-05-06T18:39:51.752Z,98398.20
2023-05-06T18:42:19.354Z,98405.55
2023-05-06T18:44:50.116Z,98409.75
2023-05-06T18:47:18.322Z,98413.07
2023-05-06T18:49:46.089Z,98412.88
2023-05-06T18:52:15.061Z,98419.86
2023-05-06T18:54:42.751Z,98418.60
2023-05-06T18:57:10.623Z,98416.50
2023-05-06T18:59:38.354Z,98421.55
2023-05-06T19:02:06.133Z,98422.58
2023-05-06T19:04:33.892Z,98422.73
2023-05-06T19:07:01.719Z,98429.02
2023-05-06T19:09:29.377Z,98429.90
2023-05-06T19:11:57.030Z,98425.17
2023-05-06T19:14:25.573Z,98426.24
2023-05-06T19:16:53.399Z,98425.38
2023-05-06T19:19:21.050Z,98429.02
2023-05-06T19:21:48.668Z,98432.00
2023-05-06T19:24:16.327Z,98433.23
2023-05-06T19:26:44.830Z,98438.65
2023-05-06T19:29:12.879Z,98435.67
2023-05-06T19:31:40.556Z,98437.42
2023-05-06T19:34:08.658Z,98439.85
2023-05-06T19:36:36.294Z,98434.07
2023-05-06T19:39:04.041Z,98434.42
2023-05-06T19:41:31.631Z,98432.14
2023-05-06T19:43:59.266Z,98433.36
2023-05-06T19:46:26.926Z,98431.06
2023-05-06T19:48:54.573Z,98434.71
2023-05-06T19:51:22.164Z,98433.48
2023-05-06T19:53:49.914Z,98434.70
2023-05-06T19:56:17.756Z,98437.51
2023-05-06T19:58:46.064Z,98438.38
2023-05-06T20:01:13.871Z,98438.86
2023-05-06T20:03:41.644Z,98440.77
2023-05-06T20:06:09.369Z,98439.89
2023-05-06T20:08:36.962Z,98437.62
2023-05-06T20:11:05.689Z,98436.92
2023-05-06T20:13:33.433Z,98438.30
2023-05-06T20:16:02.056Z,98436.70
2023-05-06T20:18:31.553Z,98433.21
2023-05-06T20:20:59.218Z,98439.19
2023-05-06T20:23:26.854Z,98440.04
2023-05-06T20:25:54.540Z,98443.17
2023-05-06T20:28:22.172Z,98444.23
2023-05-06T20:30:51.204Z,98450.70
2023-05-06T20:33:18.848Z,98450.17
2023-05-06T20:35:48.142Z,98454.55
2023-05-06T20:38:17.037Z,98457.70
2023-05-06T20:40:44.688Z,98459.60
2023-05-06T20:43:12.546Z,98460.45
2023-05-06T20:45:40.159Z,98463.77
2023-05-06T20:48:07.857Z,98463.11
2023-05-06T20:50:35.565Z,98462.05
2023-05-06T20:53:03.228Z,98464.30
2023-05-06T20:55:30.920Z,98466.89
2023-05-06T20:57:58.536Z,98472.13
2023-05-06T21:00:26.190Z,98474.21
2023-05-06T21:02:53.841Z,98478.09
2023-05-06T21:05:21.633Z,98478.65
2023-05-06T21:07:49.309Z,98479.00
2023-05-06T21:10:17.069Z,98481.27
2023-05-06T21:12:48.566Z,98483.02
2023-05-06T21:15:16.504Z,98481.98
2023-05-06T21:17:44.185Z,98482.90
2023-05-06T21:20:12.530Z,98489.89
2023-05-06T21:22:40.218Z,98493.57
2023-05-06T21:25:08.954Z,98493.55
2023-05-06T21:27:36.950Z,98500.55
2023-05-06T21:30:05.204Z,98497.73
2023-05-06T21:32:33.394Z,98495.63
2023-05-06T21:35:02.153Z,98496.33
2023-05-06T21:37:30.140Z,98499.45
2023-05-06T21:39:57.821Z,98507.83
2023-05-06T21:42:25.461Z,98502.73
2023-05-06T21:44:53.057Z,98507.06
2023-05-06T21:47:20.687Z,98513.84
2023-05-06T21:49:48.371Z,98511.88
2023-05-06T21:52:16.021Z,98509.91
2023-05-06T21:54:46.002Z,98511.61
2023-05-06T21:57:13.594Z,98518.73
2023-05-06T21:59:41.216Z,98523.05
2023-05-06T22:02:08.857Z,98521.23
2023-05-06T22:04:36.495Z,98523.79
2023-05-06T22:07:04.096Z,98525.15
2023-05-06T22:09:31.734Z,98520.76
2023-05-06T22:11:59.318Z,98519.33
2023-05-06T22:14:37.320Z,98516.13
2023-05-06T22:17:10.497Z,98518.67
2023-05-06T22:19:38.569Z,98523.69
2023-05-06T22:22:06.816Z,98517.70
2023-05-06T22:24:34.551Z,98518.73
2023-05-06T22:27:03.207Z,98517.68
2023-05-06T22:29:30.999Z,98514.84
2023-05-06T22:31:58.745Z,98517.59
2023-05-06T22:34:26.565Z,98514.59
2023-05-06T22:36:54.184Z,98518.73
2023-05-06T22:39:21.886Z,98520.29
2023-05-06T22:41:50.817Z,98520.98
2023-05-06T22:44:18.394Z,98523.98
2023-05-06T22:46:46.480Z,98524.34
2023-05-06T22:49:16.028Z,98528.16
2023-05-06T22:51:43.746Z,98528.97
2023-05-06T22:54:11.351Z,98531.49
2023-05-06T22:56:39.100Z,98537.52
2023-05-06T22:59:06.701Z,98540.84
2023-05-06T23:01:34.482Z,98544.87
2023-05-06T23:04:02.242Z,98542.40
2023-05-06T23:06:31.110Z,98546.23
2023-05-06T23:08:58.902Z,98550.70
2023-05-06T23:11:26.605Z,98549.91
2023-05-06T23:13:54.266Z,98547.75
2023-05-06T23:16:23.517Z,98546.11
2023-05-06T23:18:51.168Z,98550.42
2023-05-06T23:21:18.758Z,98548.27
2023-05-06T23:23:46.336Z,98552.23
2023-05-06T23:26:14.043Z,98550.39
2023-05-06T23:28:41.683Z,98549.63
2023-05-06T23:31:09.384Z,98550.27
2023-05-06T23:33:37.206Z,98547.30
2023-05-06T23:36:04.893Z,98547.69
2023-05-06T23:38:32.529Z,98547.36
2023-05-06T23:41:00.125Z,98548.75
2023-05-06T23:43:27.979Z,98547.65
2023-05-06T23:45:55.701Z,98552.30
2023-05-06T23:48:23.286Z,98550.52
2023-05-06T23:50:51.334Z,98549.58
2023-05-06T23:53:18.973Z,98552.58
2023-05-06T23:55:46.657Z,98551.92
2023-05-06T23:58:14.384Z,98552.11
